sensor_id;sensor_type;location;lat;lon;timestamp;temperature;humidity
44817;DHT22;30529;53.570;9.964;2022-10-16T00:02:01;14.30;99.90
44817;DHT22;30529;53.570;9.964;2022-10-16T00:04:27;14.30;99.90
44817;DHT22;30529;53.570;9.964;2022-10-16T00:06:53;14.30;99.90
44817;DHT22;30529;53.570;9.964;2022-10-16T00:09:19;14.20;99.90
44817;DHT22;30529;53.570;9.964;2022-10-16T00:11:45;14.20;99.90
44817;DHT22;30529;53.570;9.964;2022-10-16T00:14:13;14.20;99.90
44817;DHT22;30529;53.570;9.964;2022-10-16T00:16:40;14.20;99.90
44817;DHT22;30529;53.570;9.964;2022-10-16T00:19:07;14.20;99.90
44817;DHT22;30529;53.570;9.964;2022-10-16T00:21:34;14.20;99.90
44817;DHT22;30529;53.570;9.964;2022-10-16T00:24:05;14.20;99.90
44817;DHT22;30529;53.570;9.964;2022-10-16T00:26:33;14.20;99.90
44817;DHT22;30529;53.570;9.964;2022-10-16T00:28:59;14.20;99.90
44817;DHT22;30529;53.570;9.964;2022-10-16T00:31:26;14.20;99.90
44817;DHT22;30529;53.570;9.964;2022-10-16T00:33:52;14.20;99.90
44817;DHT22;30529;53.570;9.964;2022-10-16T00:36:20;14.20;99.90
44817;DHT22;30529;53.570;9.964;2022-10-16T00:38:50;14.20;99.90
44817;DHT22;30529;53.570;9.964;2022-10-16T00:41:19;14.20;99.90
44817;DHT22;30529;53.570;9.964;2022-10-16T00:43:50;14.20;99.90
44817;DHT22;30529;53.570;9.964;2022-10-16T00:46:35;14.30;99.90
44817;DHT22;30529;53.570;9.964;2022-10-16T00:49:09;14.30;99.90
44817;DHT22;30529;53.570;9.964;2022-10-16T00:51:37;14.20;99.90
44817;DHT22;30529;53.570;9.964;2022-10-16T00:54:08;14.20;99.90
44817;DHT22;30529;53.570;9.964;2022-10-16T00:56:40;14.30;99.90
44817;DHT22;30529;53.570;9.964;2022-10-16T00:59:15;14.30;99.90
44817;DHT22;30529;53.570;9.964;2022-10-16T01:01:42;14.30;99.90
44817;DHT22;30529;53.570;9.964;2022-10-16T01:04:08;14.20;99.90
44817;DHT22;30529;53.570;9.964;2022-10-16T01:12:10;14.20;99.90
44817;DHT22;30529;53.570;9.964;2022-10-16T01:14:54;14.20;99.90
44817;DHT22;30529;53.570;9.964;2022-10-16T01:17:41;14.20;99.90
44817;DHT22;30529;53.570;9.964;2022-10-16T01:20:27;14.10;99.90
44817;DHT22;30529;53.570;9.964;2022-10-16T01:28:25;14.00;99.90
44817;DHT22;30529;53.570;9.964;2022-10-16T01:30:56;13.90;99.90
44817;DHT22;30529;53.570;9.964;2022-10-16T01:33:28;13.90;99.90
44817;DHT22;30529;53.570;9.964;2022-10-16T01:36:00;13.90;99.90
44817;DHT22;30529;53.570;9.964;2022-10-16T01:38:33;13.90;99.90
44817;DHT22;30529;53.570;9.964;2022-10-16T01:41:06;13.80;99.90
44817;DHT22;30529;53.570;9.964;2022-10-16T01:43:42;13.80;99.90
44817;DHT22;30529;53.570;9.964;2022-10-16T01:46:13;13.70;99.90
44817;DHT22;30529;53.570;9.964;2022-10-16T01:48:41;13.70;99.90
44817;DHT22;30529;53.570;9.964;2022-10-16T01:51:10;13.70;99.90
44817;DHT22;30529;53.570;9.964;2022-10-16T01:53:38;13.70;99.90
44817;DHT22;30529;53.570;9.964;2022-10-16T01:56:09;13.70;99.90
44817;DHT22;30529;53.570;9.964;2022-10-16T01:58:44;13.70;99.90
44817;DHT22;30529;53.570;9.964;2022-10-16T02:01:13;13.70;99.90
44817;DHT22;30529;53.570;9.964;2022-10-16T02:03:42;13.60;99.90
44817;DHT22;30529;53.570;9.964;2022-10-16T02:06:10;13.60;99.90
44817;DHT22;30529;53.570;9.964;2022-10-16T02:08:36;13.70;99.90
44817;DHT22;30529;53.570;9.964;2022-10-16T02:11:04;13.70;99.90
44817;DHT22;30529;53.570;9.964;2022-10-16T02:13:34;13.70;99.90
44817;DHT22;30529;53.570;9.964;2022-10-16T02:16:03;13.70;99.90
44817;DHT22;30529;53.570;9.964;2022-10-16T02:18:29;13.60;99.90
44817;DHT22;30529;53.570;9.964;2022-10-16T02:23:50;13.60;99.90
44817;DHT22;30529;53.570;9.964;2022-10-16T02:26:35;13.50;99.90
44817;DHT22;30529;53.570;9.964;2022-10-16T02:29:06;13.50;99.90
44817;DHT22;30529;53.570;9.964;2022-10-16T02:31:35;13.50;99.90
44817;DHT22;30529;53.570;9.964;2022-10-16T02:34:05;13.40;99.90
44817;DHT22;30529;53.570;9.964;2022-10-16T02:36:34;13.40;99.90
44817;DHT22;30529;53.570;9.964;2022-10-16T02:39:01;13.40;99.90
44817;DHT22;30529;53.570;9.964;2022-10-16T02:41:30;13.40;99.90
44817;DHT22;30529;53.570;9.964;2022-10-16T02:43:56;13.40;99.90
44817;DHT22;30529;53.570;9.964;2022-10-16T02:46:22;13.40;99.90
44817;DHT22;30529;53.570;9.964;2022-10-16T02:48:48;13.30;99.90
44817;DHT22;30529;53.570;9.964;2022-10-16T02:51:14;13.30;99.90
44817;DHT22;30529;53.570;9.964;2022-10-16T02:53:40;13.30;99.90
44817;DHT22;30529;53.570;9.964;2022-10-16T02:56:06;13.30;99.90
44817;DHT22;30529;53.570;9.964;2022-10-16T02:58:32;13.20;99.90
44817;DHT22;30529;53.570;9.964;2022-10-16T03:00:58;13.20;99.90
44817;DHT22;30529;53.570;9.964;2022-10-16T03:03:25;13.20;99.90
44817;DHT22;30529;53.570;9.964;2022-10-16T03:05:51;13.20;99.90
44817;DHT22;30529;53.570;9.964;2022-10-16T03:08:17;13.20;99.90
44817;DHT22;30529;53.570;9.964;2022-10-16T03:10:43;13.10;99.90
44817;DHT22;30529;53.570;9.964;2022-10-16T03:13:09;13.10;99.90
44817;DHT22;30529;53.570;9.964;2022-10-16T03:15:35;13.10;99.90
44817;DHT22;30529;53.570;9.964;2022-10-16T03:18:01;13.00;99.90
44817;DHT22;30529;53.570;9.964;2022-10-16T03:20:27;13.00;99.90
44817;DHT22;30529;53.570;9.964;2022-10-16T03:22:53;13.00;99.90
44817;DHT22;30529;53.570;9.964;2022-10-16T03:25:19;13.00;99.90
44817;DHT22;30529;53.570;9.964;2022-10-16T03:27:46;13.00;99.90
44817;DHT22;30529;53.570;9.964;2022-10-16T03:30:12;13.00;99.90
44817;DHT22;30529;53.570;9.964;2022-10-16T03:32:38;13.00;99.90
44817;DHT22;30529;53.570;9.964;2022-10-16T03:35:04;13.00;99.90
44817;DHT22;30529;53.570;9.964;2022-10-16T03:37:31;13.00;99.90
44817;DHT22;30529;53.570;9.964;2022-10-16T03:39:57;13.00;99.90
44817;DHT22;30529;53.570;9.964;2022-10-16T03:42:23;13.00;99.90
44817;DHT22;30529;53.570;9.964;2022-10-16T03:44:50;13.00;99.90
44817;DHT22;30529;53.570;9.964;2022-10-16T03:47:16;13.00;99.90
44817;DHT22;30529;53.570;9.964;2022-10-16T03:49:46;13.00;99.90
44817;DHT22;30529;53.570;9.964;2022-10-16T03:52:12;13.00;99.90
44817;DHT22;30529;53.570;9.964;2022-10-16T03:54:38;13.00;99.90
44817;DHT22;30529;53.570;9.964;2022-10-16T03:57:04;13.10;99.90
44817;DHT22;30529;53.570;9.964;2022-10-16T03:59:31;13.10;99.90
44817;DHT22;30529;53.570;9.964;2022-10-16T04:01:57;13.10;99.90
44817;DHT22;30529;53.570;9.964;2022-10-16T04:04:23;13.10;99.90
44817;DHT22;30529;53.570;9.964;2022-10-16T04:06:51;13.10;99.90
44817;DHT22;30529;53.570;9.964;2022-10-16T04:09:17;13.00;99.90
44817;DHT22;30529;53.570;9.964;2022-10-16T04:11:43;13.00;99.90
44817;DHT22;30529;53.570;9.964;2022-10-16T04:14:09;13.00;99.90
44817;DHT22;30529;53.570;9.964;2022-10-16T04:16:35;13.00;99.90
44817;DHT22;30529;53.570;9.964;2022-10-16T04:19:01;13.00;99.90
44817;DHT22;30529;53.570;9.964;2022-10-16T04:21:27;13.00;99.90
44817;DHT22;30529;53.570;9.964;2022-10-16T04:23:54;13.00;99.90
44817;DHT22;30529;53.570;9.964;2022-10-16T04:26:20;13.00;99.90
44817;DHT22;30529;53.570;9.964;2022-10-16T04:28:46;13.00;99.90
44817;DHT22;30529;53.570;9.964;2022-10-16T04:31:12;13.00;99.90
44817;DHT22;30529;53.570;9.964;2022-10-16T04:33:38;13.00;99.90
44817;DHT22;30529;53.570;9.964;2022-10-16T04:36:05;13.00;99.90
44817;DHT22;30529;53.570;9.964;2022-10-16T04:38:31;13.00;99.90
44817;DHT22;30529;53.570;9.964;2022-10-16T04:40:57;13.00;99.90
44817;DHT22;30529;53.570;9.964;2022-10-16T04:43:23;13.00;99.90
44817;DHT22;30529;53.570;9.964;2022-10-16T04:45:49;12.90;99.90
44817;DHT22;30529;53.570;9.964;2022-10-16T04:48:17;12.90;99.90
44817;DHT22;30529;53.570;9.964;2022-10-16T04:50:44;12.90;99.90
44817;DHT22;30529;53.570;9.964;2022-10-16T04:53:11;12.90;99.90
44817;DHT22;30529;53.570;9.964;2022-10-16T04:55:37;12.90;99.90
44817;DHT22;30529;53.570;9.964;2022-10-16T04:58:04;12.90;99.90
44817;DHT22;30529;53.570;9.964;2022-10-16T05:00:30;12.90;99.90
44817;DHT22;30529;53.570;9.964;2022-10-16T05:02:56;12.90;99.90
44817;DHT22;30529;53.570;9.964;2022-10-16T05:05:24;12.90;99.90
44817;DHT22;30529;53.570;9.964;2022-10-16T05:07:50;12.90;99.90
44817;DHT22;30529;53.570;9.964;2022-10-16T05:10:16;12.90;99.90
44817;DHT22;30529;53.570;9.964;2022-10-16T05:12:43;12.80;99.90
44817;DHT22;30529;53.570;9.964;2022-10-16T05:15:09;12.80;99.90
44817;DHT22;30529;53.570;9.964;2022-10-16T05:17:35;12.80;99.90
44817;DHT22;30529;53.570;9.964;2022-10-16T05:20:02;12.80;99.90
44817;DHT22;30529;53.570;9.964;2022-10-16T05:22:29;12.80;99.90
44817;DHT22;30529;53.570;9.964;2022-10-16T05:24:55;12.80;99.90
44817;DHT22;30529;53.570;9.964;2022-10-16T05:27:21;12.80;99.90
44817;DHT22;30529;53.570;9.964;2022-10-16T05:29:48;12.80;99.90
44817;DHT22;30529;53.570;9.964;2022-10-16T05:32:15;12.80;99.90
44817;DHT22;30529;53.570;9.964;2022-10-16T05:34:42;12.80;99.90
44817;DHT22;30529;53.570;9.964;2022-10-16T05:37:09;12.80;99.90
44817;DHT22;30529;53.570;9.964;2022-10-16T05:39:35;12.80;99.90
44817;DHT22;30529;53.570;9.964;2022-10-16T05:42:03;12.90;99.90
44817;DHT22;30529;53.570;9.964;2022-10-16T05:44:29;12.90;99.90
44817;DHT22;30529;53.570;9.964;2022-10-16T05:46:56;13.00;99.90
44817;DHT22;30529;53.570;9.964;2022-10-16T05:49:22;13.00;99.90
44817;DHT22;30529;53.570;9.964;2022-10-16T05:51:48;13.10;99.90
44817;DHT22;30529;53.570;9.964;2022-10-16T05:54:14;13.10;99.90
44817;DHT22;30529;53.570;9.964;2022-10-16T05:56:41;13.20;99.90
44817;DHT22;30529;53.570;9.964;2022-10-16T05:59:10;13.20;99.90
44817;DHT22;30529;53.570;9.964;2022-10-16T06:01:36;13.20;99.90
44817;DHT22;30529;53.570;9.964;2022-10-16T06:04:02;13.20;99.90
44817;DHT22;30529;53.570;9.964;2022-10-16T06:06:29;13.30;99.90
44817;DHT22;30529;53.570;9.964;2022-10-16T06:08:57;13.40;99.90
44817;DHT22;30529;53.570;9.964;2022-10-16T06:11:26;13.40;99.90
44817;DHT22;30529;53.570;9.964;2022-10-16T06:13:55;13.40;99.90
44817;DHT22;30529;53.570;9.964;2022-10-16T06:16:23;13.40;99.90
44817;DHT22;30529;53.570;9.964;2022-10-16T06:18:54;13.40;99.90
44817;DHT22;30529;53.570;9.964;2022-10-16T06:21:22;13.40;99.90
44817;DHT22;30529;53.570;9.964;2022-10-16T06:23:51;13.30;99.90
44817;DHT22;30529;53.570;9.964;2022-10-16T06:26:19;13.30;99.90
44817;DHT22;30529;53.570;9.964;2022-10-16T06:28:46;13.30;99.90
44817;DHT22;30529;53.570;9.964;2022-10-16T06:31:13;13.30;99.90
44817;DHT22;30529;53.570;9.964;2022-10-16T06:33:40;13.30;99.90
44817;DHT22;30529;53.570;9.964;2022-10-16T06:36:08;13.30;99.90
44817;DHT22;30529;53.570;9.964;2022-10-16T06:38:38;13.30;99.90
44817;DHT22;30529;53.570;9.964;2022-10-16T06:41:05;13.30;99.90
44817;DHT22;30529;53.570;9.964;2022-10-16T06:43:32;13.30;99.90
44817;DHT22;30529;53.570;9.964;2022-10-16T06:46:01;13.40;99.90
44817;DHT22;30529;53.570;9.964;2022-10-16T06:48:29;13.40;99.90
44817;DHT22;30529;53.570;9.964;2022-10-16T06:53:27;13.50;99.90
44817;DHT22;30529;53.570;9.964;2022-10-16T06:55:54;13.50;99.90
44817;DHT22;30529;53.570;9.964;2022-10-16T06:58:21;13.60;99.90
44817;DHT22;30529;53.570;9.964;2022-10-16T07:00:47;13.70;99.90
44817;DHT22;30529;53.570;9.964;2022-10-16T07:03:14;13.70;99.90
44817;DHT22;30529;53.570;9.964;2022-10-16T07:05:41;13.90;99.90
44817;DHT22;30529;53.570;9.964;2022-10-16T07:08:08;14.00;99.90
44817;DHT22;30529;53.570;9.964;2022-10-16T07:10:34;14.10;99.90
44817;DHT22;30529;53.570;9.964;2022-10-16T07:13:01;14.10;99.90
44817;DHT22;30529;53.570;9.964;2022-10-16T07:15:27;14.30;99.90
44817;DHT22;30529;53.570;9.964;2022-10-16T07:17:53;14.30;99.90
44817;DHT22;30529;53.570;9.964;2022-10-16T07:20:20;14.40;99.90
44817;DHT22;30529;53.570;9.964;2022-10-16T07:22:46;14.40;99.90
44817;DHT22;30529;53.570;9.964;2022-10-16T07:25:12;14.40;99.90
44817;DHT22;30529;53.570;9.964;2022-10-16T07:27:38;14.30;99.90
44817;DHT22;30529;53.570;9.964;2022-10-16T07:30:05;14.20;99.90
44817;DHT22;30529;53.570;9.964;2022-10-16T07:32:32;14.20;99.90
44817;DHT22;30529;53.570;9.964;2022-10-16T07:34:58;14.20;99.90
44817;DHT22;30529;53.570;9.964;2022-10-16T07:37:24;14.20;99.90
44817;DHT22;30529;53.570;9.964;2022-10-16T07:39:50;14.30;99.90
44817;DHT22;30529;53.570;9.964;2022-10-16T07:42:16;14.30;99.90
44817;DHT22;30529;53.570;9.964;2022-10-16T07:44:42;14.40;99.90
44817;DHT22;30529;53.570;9.964;2022-10-16T07:47:09;14.50;99.90
44817;DHT22;30529;53.570;9.964;2022-10-16T07:49:35;14.60;99.90
44817;DHT22;30529;53.570;9.964;2022-10-16T07:52:01;14.60;99.90
44817;DHT22;30529;53.570;9.964;2022-10-16T07:54:27;14.70;99.90
44817;DHT22;30529;53.570;9.964;2022-10-16T07:56:53;14.70;99.90
44817;DHT22;30529;53.570;9.964;2022-10-16T07:59:20;14.70;99.90
44817;DHT22;30529;53.570;9.964;2022-10-16T08:01:46;14.70;99.90
44817;DHT22;30529;53.570;9.964;2022-10-16T08:04:14;14.60;99.90
44817;DHT22;30529;53.570;9.964;2022-10-16T08:06:41;14.60;99.90
44817;DHT22;30529;53.570;9.964;2022-10-16T08:09:08;14.50;99.90
44817;DHT22;30529;53.570;9.964;2022-10-16T08:11:34;14.50;99.90
44817;DHT22;30529;53.570;9.964;2022-10-16T08:14:01;14.40;99.90
44817;DHT22;30529;53.570;9.964;2022-10-16T08:16:27;14.40;99.90
44817;DHT22;30529;53.570;9.964;2022-10-16T08:18:53;14.40;99.90
44817;DHT22;30529;53.570;9.964;2022-10-16T08:21:22;14.40;99.90
44817;DHT22;30529;53.570;9.964;2022-10-16T08:23:50;14.30;99.90
44817;DHT22;30529;53.570;9.964;2022-10-16T08:26:17;14.30;99.90
44817;DHT22;30529;53.570;9.964;2022-10-16T08:28:44;14.30;99.90
44817;DHT22;30529;53.570;9.964;2022-10-16T08:31:15;14.30;99.90
44817;DHT22;30529;53.570;9.964;2022-10-16T08:33:43;14.30;99.90
44817;DHT22;30529;53.570;9.964;2022-10-16T08:36:11;14.40;99.90
44817;DHT22;30529;53.570;9.964;2022-10-16T08:38:38;14.50;99.90
44817;DHT22;30529;53.570;9.964;2022-10-16T08:49:27;14.70;99.90
44817;DHT22;30529;53.570;9.964;2022-10-16T08:51:55;14.70;99.90
44817;DHT22;30529;53.570;9.964;2022-10-16T08:54:29;14.70;99.90
44817;DHT22;30529;53.570;9.964;2022-10-16T08:57:01;14.60;99.90
44817;DHT22;30529;53.570;9.964;2022-10-16T09:03:04;14.70;99.90
44817;DHT22;30529;53.570;9.964;2022-10-16T09:05:52;14.90;99.90
44817;DHT22;30529;53.570;9.964;2022-10-16T09:16:46;15.10;99.90
44817;DHT22;30529;53.570;9.964;2022-10-16T09:19:20;15.20;99.90
44817;DHT22;30529;53.570;9.964;2022-10-16T09:21:50;15.20;99.90
44817;DHT22;30529;53.570;9.964;2022-10-16T09:24:21;15.20;99.90
44817;DHT22;30529;53.570;9.964;2022-10-16T09:26:50;15.20;99.90
44817;DHT22;30529;53.570;9.964;2022-10-16T09:29:18;15.20;99.90
44817;DHT22;30529;53.570;9.964;2022-10-16T09:31:46;15.30;99.90
44817;DHT22;30529;53.570;9.964;2022-10-16T09:34:30;15.40;99.90
44817;DHT22;30529;53.570;9.964;2022-10-16T09:36:57;15.50;99.90
44817;DHT22;30529;53.570;9.964;2022-10-16T09:39:24;15.50;99.90
44817;DHT22;30529;53.570;9.964;2022-10-16T09:41:51;15.50;99.90
44817;DHT22;30529;53.570;9.964;2022-10-16T09:44:28;15.50;99.90
44817;DHT22;30529;53.570;9.964;2022-10-16T09:47:05;15.40;99.90
44817;DHT22;30529;53.570;9.964;2022-10-16T09:49:37;15.60;99.90
44817;DHT22;30529;53.570;9.964;2022-10-16T09:52:42;15.60;99.90
44817;DHT22;30529;53.570;9.964;2022-10-16T09:55:16;15.60;99.90
44817;DHT22;30529;53.570;9.964;2022-10-16T09:57:53;15.60;99.90
44817;DHT22;30529;53.570;9.964;2022-10-16T10:00:21;15.60;99.90
44817;DHT22;30529;53.570;9.964;2022-10-16T10:02:48;15.60;99.90
44817;DHT22;30529;53.570;9.964;2022-10-16T10:05:25;15.70;99.90
44817;DHT22;30529;53.570;9.964;2022-10-16T10:08:03;15.70;99.90
44817;DHT22;30529;53.570;9.964;2022-10-16T10:10:42;15.70;99.90
44817;DHT22;30529;53.570;9.964;2022-10-16T10:13:22;15.70;99.90
44817;DHT22;30529;53.570;9.964;2022-10-16T10:16:10;15.70;99.90
44817;DHT22;30529;53.570;9.964;2022-10-16T10:18:36;15.70;99.90
44817;DHT22;30529;53.570;9.964;2022-10-16T10:25:26;15.70;99.90
44817;DHT22;30529;53.570;9.964;2022-10-16T10:28:35;15.70;99.90
44817;DHT22;30529;53.570;9.964;2022-10-16T10:39:45;15.80;99.90
44817;DHT22;30529;53.570;9.964;2022-10-16T10:42:36;15.90;99.90
44817;DHT22;30529;53.570;9.964;2022-10-16T10:45:18;16.10;99.90
44817;DHT22;30529;53.570;9.964;2022-10-16T10:50:51;16.50;99.90
44817;DHT22;30529;53.570;9.964;2022-10-16T10:59:49;16.30;99.90
44817;DHT22;30529;53.570;9.964;2022-10-16T11:02:42;16.30;99.90
44817;DHT22;30529;53.570;9.964;2022-10-16T11:10:52;16.30;99.90
44817;DHT22;30529;53.570;9.964;2022-10-16T11:15:54;16.40;99.90
44817;DHT22;30529;53.570;9.964;2022-10-16T11:18:37;16.40;99.90
44817;DHT22;30529;53.570;9.964;2022-10-16T11:21:14;16.40;99.90
44817;DHT22;30529;53.570;9.964;2022-10-16T11:26:16;16.50;99.90
44817;DHT22;30529;53.570;9.964;2022-10-16T11:28:54;16.50;99.90
44817;DHT22;30529;53.570;9.964;2022-10-16T11:32:01;16.70;99.90
44817;DHT22;30529;53.570;9.964;2022-10-16T11:34:43;16.90;99.90
44817;DHT22;30529;53.570;9.964;2022-10-16T11:37:28;17.00;99.90
44817;DHT22;30529;53.570;9.964;2022-10-16T11:40:28;17.30;99.90
44817;DHT22;30529;53.570;9.964;2022-10-16T11:43:06;17.50;99.90
44817;DHT22;30529;53.570;9.964;2022-10-16T11:45:41;17.60;99.90
44817;DHT22;30529;53.570;9.964;2022-10-16T11:48:40;17.50;99.90
44817;DHT22;30529;53.570;9.964;2022-10-16T11:53:53;17.40;99.90
44817;DHT22;30529;53.570;9.964;2022-10-16T11:56:22;17.30;99.90
44817;DHT22;30529;53.570;9.964;2022-10-16T11:59:04;17.00;99.90
44817;DHT22;30529;53.570;9.964;2022-10-16T12:05:01;16.80;99.90
44817;DHT22;30529;53.570;9.964;2022-10-16T12:07:35;16.70;99.90
44817;DHT22;30529;53.570;9.964;2022-10-16T12:10:23;16.60;99.90
44817;DHT22;30529;53.570;9.964;2022-10-16T12:12:50;16.50;99.90
44817;DHT22;30529;53.570;9.964;2022-10-16T12:15:26;16.40;99.90
44817;DHT22;30529;53.570;9.964;2022-10-16T12:17:53;16.40;99.90
44817;DHT22;30529;53.570;9.964;2022-10-16T12:20:21;16.50;99.90
44817;DHT22;30529;53.570;9.964;2022-10-16T12:22:59;16.60;99.90
44817;DHT22;30529;53.570;9.964;2022-10-16T12:25:33;16.50;99.90
44817;DHT22;30529;53.570;9.964;2022-10-16T12:28:17;16.60;99.90
44817;DHT22;30529;53.570;9.964;2022-10-16T12:30:54;16.80;99.90
44817;DHT22;30529;53.570;9.964;2022-10-16T12:35:53;16.90;99.90
44817;DHT22;30529;53.570;9.964;2022-10-16T12:38:37;17.00;99.90
44817;DHT22;30529;53.570;9.964;2022-10-16T12:41:06;17.10;99.90
44817;DHT22;30529;53.570;9.964;2022-10-16T12:43:42;17.10;99.90
44817;DHT22;30529;53.570;9.964;2022-10-16T12:48:39;17.20;99.90
44817;DHT22;30529;53.570;9.964;2022-10-16T12:51:33;17.20;99.90
44817;DHT22;30529;53.570;9.964;2022-10-16T12:56:49;17.40;99.90
44817;DHT22;30529;53.570;9.964;2022-10-16T13:05:08;17.70;99.90
44817;DHT22;30529;53.570;9.964;2022-10-16T13:21:38;17.10;99.90
44817;DHT22;30529;53.570;9.964;2022-10-16T13:27:01;17.00;99.90
44817;DHT22;30529;53.570;9.964;2022-10-16T13:29:33;17.00;99.90
44817;DHT22;30529;53.570;9.964;2022-10-16T13:32:01;17.00;99.90
44817;DHT22;30529;53.570;9.964;2022-10-16T13:34:33;17.00;99.90
44817;DHT22;30529;53.570;9.964;2022-10-16T13:36:59;17.00;99.90
44817;DHT22;30529;53.570;9.964;2022-10-16T13:39:26;17.00;99.90
44817;DHT22;30529;53.570;9.964;2022-10-16T13:42:05;17.00;99.90
44817;DHT22;30529;53.570;9.964;2022-10-16T13:44:46;16.90;99.90
44817;DHT22;30529;53.570;9.964;2022-10-16T13:49:44;16.80;99.90
44817;DHT22;30529;53.570;9.964;2022-10-16T13:52:20;16.90;99.90
44817;DHT22;30529;53.570;9.964;2022-10-16T13:54:47;16.90;99.90
44817;DHT22;30529;53.570;9.964;2022-10-16T13:57:22;16.90;99.90
44817;DHT22;30529;53.570;9.964;2022-10-16T14:00:24;16.90;99.90
44817;DHT22;30529;53.570;9.964;2022-10-16T14:02:54;16.90;99.90
44817;DHT22;30529;53.570;9.964;2022-10-16T14:05:22;17.00;99.90
44817;DHT22;30529;53.570;9.964;2022-10-16T14:07:50;17.20;99.90
44817;DHT22;30529;53.570;9.964;2022-10-16T14:10:23;17.10;99.90
44817;DHT22;30529;53.570;9.964;2022-10-16T14:15:24;17.10;99.90
44817;DHT22;30529;53.570;9.964;2022-10-16T14:17:52;17.10;99.90
44817;DHT22;30529;53.570;9.964;2022-10-16T14:20:21;17.20;99.90
44817;DHT22;30529;53.570;9.964;2022-10-16T14:23:04;17.30;99.90
44817;DHT22;30529;53.570;9.964;2022-10-16T14:25:44;17.40;99.90
44817;DHT22;30529;53.570;9.964;2022-10-16T14:28:17;17.60;99.90
44817;DHT22;30529;53.570;9.964;2022-10-16T14:30:58;17.70;99.90
44817;DHT22;30529;53.570;9.964;2022-10-16T14:38:26;17.50;99.90
44817;DHT22;30529;53.570;9.964;2022-10-16T14:40:52;17.40;99.90
44817;DHT22;30529;53.570;9.964;2022-10-16T14:43:40;17.20;99.90
44817;DHT22;30529;53.570;9.964;2022-10-16T14:46:15;17.20;99.90
44817;DHT22;30529;53.570;9.964;2022-10-16T14:48:45;17.10;99.90
44817;DHT22;30529;53.570;9.964;2022-10-16T14:51:19;17.00;99.90
44817;DHT22;30529;53.570;9.964;2022-10-16T14:53:51;16.90;99.90
44817;DHT22;30529;53.570;9.964;2022-10-16T14:56:23;16.90;99.90
44817;DHT22;30529;53.570;9.964;2022-10-16T14:58:51;17.10;99.90
44817;DHT22;30529;53.570;9.964;2022-10-16T15:01:21;17.20;99.90
44817;DHT22;30529;53.570;9.964;2022-10-16T15:03:48;17.10;99.90
44817;DHT22;30529;53.570;9.964;2022-10-16T15:06:37;17.00;99.90
44817;DHT22;30529;53.570;9.964;2022-10-16T15:09:11;16.80;99.90
44817;DHT22;30529;53.570;9.964;2022-10-16T15:11:37;16.70;99.90
44817;DHT22;30529;53.570;9.964;2022-10-16T15:14:04;16.60;99.90
44817;DHT22;30529;53.570;9.964;2022-10-16T15:16:31;16.50;99.90
44817;DHT22;30529;53.570;9.964;2022-10-16T15:18:57;16.50;99.90
44817;DHT22;30529;53.570;9.964;2022-10-16T15:21:30;16.40;99.90
44817;DHT22;30529;53.570;9.964;2022-10-16T15:23:58;16.40;99.90
44817;DHT22;30529;53.570;9.964;2022-10-16T15:26:26;16.40;99.90
44817;DHT22;30529;53.570;9.964;2022-10-16T15:28:55;16.30;99.90
44817;DHT22;30529;53.570;9.964;2022-10-16T15:31:53;16.30;99.90
44817;DHT22;30529;53.570;9.964;2022-10-16T15:34:42;16.20;99.90
44817;DHT22;30529;53.570;9.964;2022-10-16T15:37:18;16.20;99.90
44817;DHT22;30529;53.570;9.964;2022-10-16T15:39:44;16.10;99.90
44817;DHT22;30529;53.570;9.964;2022-10-16T15:42:10;16.10;99.90
44817;DHT22;30529;53.570;9.964;2022-10-16T15:44:39;16.00;99.90
44817;DHT22;30529;53.570;9.964;2022-10-16T15:47:05;15.90;99.90
44817;DHT22;30529;53.570;9.964;2022-10-16T15:49:31;15.90;99.90
44817;DHT22;30529;53.570;9.964;2022-10-16T15:52:07;15.80;99.90
44817;DHT22;30529;53.570;9.964;2022-10-16T15:54:36;15.80;99.90
44817;DHT22;30529;53.570;9.964;2022-10-16T15:57:02;15.70;99.90
44817;DHT22;30529;53.570;9.964;2022-10-16T15:59:28;15.70;99.90
44817;DHT22;30529;53.570;9.964;2022-10-16T16:01:57;15.60;99.90
44817;DHT22;30529;53.570;9.964;2022-10-16T16:04:24;15.50;99.90
44817;DHT22;30529;53.570;9.964;2022-10-16T16:07:16;15.40;99.90
44817;DHT22;30529;53.570;9.964;2022-10-16T16:09:42;15.40;99.90
44817;DHT22;30529;53.570;9.964;2022-10-16T16:12:11;15.40;99.90
44817;DHT22;30529;53.570;9.964;2022-10-16T16:14:37;15.30;99.90
44817;DHT22;30529;53.570;9.964;2022-10-16T16:17:06;15.30;99.90
44817;DHT22;30529;53.570;9.964;2022-10-16T16:19:32;15.20;99.90
44817;DHT22;30529;53.570;9.964;2022-10-16T16:22:05;15.10;99.90
44817;DHT22;30529;53.570;9.964;2022-10-16T16:24:43;15.10;99.90
44817;DHT22;30529;53.570;9.964;2022-10-16T16:27:09;15.10;99.90
44817;DHT22;30529;53.570;9.964;2022-10-16T16:29:36;15.00;99.90
44817;DHT22;30529;53.570;9.964;2022-10-16T16:32:02;15.00;99.90
44817;DHT22;30529;53.570;9.964;2022-10-16T16:34:29;15.00;99.90
44817;DHT22;30529;53.570;9.964;2022-10-16T16:36:55;15.00;99.90
44817;DHT22;30529;53.570;9.964;2022-10-16T16:39:22;14.90;99.90
44817;DHT22;30529;53.570;9.964;2022-10-16T16:41:49;14.90;99.90
44817;DHT22;30529;53.570;9.964;2022-10-16T16:44:16;14.90;99.90
44817;DHT22;30529;53.570;9.964;2022-10-16T16:46:43;14.80;99.90
44817;DHT22;30529;53.570;9.964;2022-10-16T16:49:13;14.80;99.90
44817;DHT22;30529;53.570;9.964;2022-10-16T16:51:41;14.80;99.90
44817;DHT22;30529;53.570;9.964;2022-10-16T16:54:11;14.80;99.90
44817;DHT22;30529;53.570;9.964;2022-10-16T16:56:44;14.70;99.90
44817;DHT22;30529;53.570;9.964;2022-10-16T16:59:13;14.70;99.90
44817;DHT22;30529;53.570;9.964;2022-10-16T17:05:01;14.70;99.90
44817;DHT22;30529;53.570;9.964;2022-10-16T17:07:39;14.70;99.90
44817;DHT22;30529;53.570;9.964;2022-10-16T17:10:32;14.60;99.90
44817;DHT22;30529;53.570;9.964;2022-10-16T17:18:41;14.60;99.90
44817;DHT22;30529;53.570;9.964;2022-10-16T17:21:08;14.50;99.90
44817;DHT22;30529;53.570;9.964;2022-10-16T17:23:36;14.50;99.90
44817;DHT22;30529;53.570;9.964;2022-10-16T17:26:08;14.50;99.90
44817;DHT22;30529;53.570;9.964;2022-10-16T17:28:35;14.50;99.90
44817;DHT22;30529;53.570;9.964;2022-10-16T17:31:16;14.40;99.90
44817;DHT22;30529;53.570;9.964;2022-10-16T17:33:43;14.40;99.90
44817;DHT22;30529;53.570;9.964;2022-10-16T17:36:10;14.30;99.90
44817;DHT22;30529;53.570;9.964;2022-10-16T17:38:40;14.30;99.90
44817;DHT22;30529;53.570;9.964;2022-10-16T17:41:15;14.20;99.90
44817;DHT22;30529;53.570;9.964;2022-10-16T17:43:48;14.20;99.90
44817;DHT22;30529;53.570;9.964;2022-10-16T17:46:17;14.20;99.90
44817;DHT22;30529;53.570;9.964;2022-10-16T17:48:45;14.10;99.90
44817;DHT22;30529;53.570;9.964;2022-10-16T17:51:16;14.10;99.90
44817;DHT22;30529;53.570;9.964;2022-10-16T17:53:42;14.10;99.90
44817;DHT22;30529;53.570;9.964;2022-10-16T17:56:11;14.10;99.90